Time,TemperatureF,DewpointF,PressureIn,WindDirection,WindDirectionDegrees,WindSpeedMPH,WindSpeedGustMPH,Humidity,HourlyPrecipIn,Conditions,Clouds,dailyrainin,SolarRadiationWatts/m^2,SoftwareType,DateUTC
2013-12-22 00:00:00,69.4,68.2,30.05,SE,144,1.0,8.0,96,0.00,,,0.00,0.0,meteohub,2013-12-22 05:00:00,
2013-12-22 00:01:00,69.4,68.2,30.05,South,173,0.0,8.0,96,0.00,,,0.00,0.0,meteohub,2013-12-22 05:01:00,
2013-12-22 00:03:00,69.4,68.2,30.05,SSE,167,7.0,8.0,96,0.00,,,0.00,0.0,meteohub,2013-12-22 05:03:00,
2013-12-22 00:08:00,69.4,68.2,30.05,SE,133,0.0,8.0,96,0.00,,,0.00,0.0,meteohub,2013-12-22 05:08:00,
2013-12-22 00:13:00,69.4,68.2,30.05,SSE,153,2.0,8.0,96,0.00,,,0.00,0.0,meteohub,2013-12-22 05:13:00,
2013-12-22 00:18:00,69.3,68.0,30.05,SSE,160,0.0,8.0,96,0.00,,,0.00,0.0,meteohub,2013-12-22 05:18:00,
2013-12-22 00:23:00,69.3,68.0,30.05,SSW,197,8.0,8.0,96,0.00,,,0.00,0.0,meteohub,2013-12-22 05:23:00,
2013-12-22 00:28:00,69.3,68.0,30.05,SE,146,1.0,8.0,96,0.00,,,0.00,0.0,meteohub,2013-12-22 05:28:00,
2013-12-22 00:33:00,69.4,68.2,30.05,SSE,165,2.0,8.0,96,0.00,,,0.00,0.0,meteohub,2013-12-22 05:33:00,
2013-12-22 00:38:00,69.4,68.2,30.05,SSW,201,6.0,8.0,96,0.00,,,0.00,0.0,meteohub,2013-12-22 05:38:00,
2013-12-22 00:43:00,69.4,68.2,30.05,SE,141,0.0,8.0,96,0.00,,,0.00,0.0,meteohub,2013-12-22 05:43:00,
2013-12-22 00:48:00,69.6,68.4,30.05,East,84,0.0,8.0,96,0.00,,,0.00,0.0,meteohub,2013-12-22 05:48:00,
2013-12-22 00:53:00,69.8,68.5,30.05,South,169,2.0,11.0,96,0.00,,,0.00,0.0,meteohub,2013-12-22 05:53:00,
2013-12-22 00:58:00,70.0,68.7,30.05,SSW,194,4.0,18.0,96,0.00,,,0.00,0.0,meteohub,2013-12-22 05:58:00,
2013-12-22 01:03:00,70.2,68.9,30.05,SSW,192,5.0,18.0,96,0.00,,,0.00,0.0,meteohub,2013-12-22 06:03:00,
2013-12-22 01:08:00,70.2,68.9,30.05,SSE,160,1.0,18.0,96,0.00,,,0.00,0.0,meteohub,2013-12-22 06:08:00,
2013-12-22 01:13:00,70.3,69.1,30.05,SSW,203,8.0,12.0,96,0.00,,,0.00,0.0,meteohub,2013-12-22 06:13:00,
2013-12-22 01:18:00,70.3,69.1,30.05,SSW,200,6.0,13.0,96,0.00,,,0.00,0.0,meteohub,2013-12-22 06:18:00,
2013-12-22 01:23:00,70.5,69.3,30.05,SSW,203,5.0,13.0,96,0.00,,,0.00,0.0,meteohub,2013-12-22 06:23:00,
2013-12-22 01:28:00,70.5,69.3,30.05,SSE,149,0.0,17.0,96,0.00,,,0.00,0.0,meteohub,2013-12-22 06:28:00,
2013-12-22 01:33:00,70.5,69.3,30.05,SW,215,7.0,17.0,96,0.00,,,0.00,0.0,meteohub,2013-12-22 06:33:00,
2013-12-22 01:38:00,70.5,69.3,30.05,South,169,2.0,17.0,96,0.00,,,0.00,0.0,meteohub,2013-12-22 06:38:00,
2013-12-22 01:43:00,70.5,69.3,30.05,South,175,2.0,10.0,96,0.00,,,0.00,0.0,meteohub,2013-12-22 06:43:00,
2013-12-22 01:49:00,70.5,69.3,30.05,South,180,4.0,10.0,96,0.00,,,0.00,0.0,meteohub,2013-12-22 06:49:00,
2013-12-22 01:54:00,70.3,69.1,30.05,SSE,159,0.0,10.0,96,0.00,,,0.00,0.0,meteohub,2013-12-22 06:54:00,
2013-12-22 01:59:00,70.3,69.1,30.05,South,172,0.0,13.0,96,0.00,,,0.00,0.0,meteohub,2013-12-22 06:59:00,
2013-12-22 02:04:00,70.3,69.1,30.06,SSW,210,0.0,13.0,96,0.00,,,0.00,0.0,meteohub,2013-12-22 07:04:00,
2013-12-22 02:09:00,70.2,68.9,30.06,South,183,4.0,13.0,96,0.00,,,0.00,0.0,meteohub,2013-12-22 07:09:00,
2013-12-22 02:14:00,70.2,68.9,30.06,SSE,163,2.0,7.0,96,0.00,,,0.00,0.0,meteohub,2013-12-22 07:14:00,
2013-12-22 02:19:00,70.2,68.9,30.06,ESE,122,1.0,7.0,96,0.00,,,0.00,0.0,meteohub,2013-12-22 07:19:00,
2013-12-22 02:24:00,70.0,68.7,30.06,South,188,0.0,7.0,96,0.00,,,0.00,0.0,meteohub,2013-12-22 07:24:00,
2013-12-22 02:29:00,70.0,68.7,30.06,SSE,154,0.0,7.0,96,0.00,,,0.00,0.0,meteohub,2013-12-22 07:29:00,
2013-12-22 02:34:00,70.0,68.7,30.06,SSE,167,0.0,7.0,96,0.00,,,0.00,0.0,meteohub,2013-12-22 07:34:00,
2013-12-22 02:39:00,70.0,68.7,30.06,SSE,167,2.0,7.0,96,0.00,,,0.00,0.0,meteohub,2013-12-22 07:39:00,
2013-12-22 02:44:00,69.8,68.5,30.06,SSE,155,3.0,7.0,96,0.00,,,0.00,0.0,meteohub,2013-12-22 07:44:00,
2013-12-22 02:49:00,69.6,68.4,30.05,SE,133,1.0,7.0,96,0.00,,,0.00,0.0,meteohub,2013-12-22 07:49:00,
2013-12-22 02:54:00,69.6,68.4,30.05,SSW,193,0.0,7.0,96,0.00,,,0.00,0.0,meteohub,2013-12-22 07:54:00,
2013-12-22 02:59:00,69.6,68.4,30.05,SSE,165,2.0,7.0,96,0.00,,,0.00,0.0,meteohub,2013-12-22 07:59:00,
2013-12-22 03:04:00,69.6,68.4,30.05,SE,135,0.0,7.0,96,0.00,,,0.00,0.0,meteohub,2013-12-22 08:04:00,
2013-12-22 03:09:00,69.6,68.4,30.05,South,171,1.0,7.0,96,0.00,,,0.00,0.0,meteohub,2013-12-22 08:09:00,
2013-12-22 03:14:00,69.6,68.4,30.05,SSE,148,0.0,7.0,96,0.00,,,0.00,0.0,meteohub,2013-12-22 08:14:00,
2013-12-22 03:19:00,69.4,68.2,30.05,South,176,4.0,7.0,96,0.00,,,0.00,0.0,meteohub,2013-12-22 08:19:00,
2013-12-22 03:24:00,69.6,68.4,30.05,SSE,163,3.0,6.0,96,0.00,,,0.00,0.0,meteohub,2013-12-22 08:24:00,
2013-12-22 03:29:00,69.6,68.4,30.05,ESE,123,0.0,9.0,96,0.00,,,0.00,0.0,meteohub,2013-12-22 08:29:00,
2013-12-22 03:34:00,69.6,68.4,30.05,SE,144,4.0,9.0,96,0.00,,,0.00,0.0,meteohub,2013-12-22 08:34:00,
2013-12-22 03:39:00,69.6,68.4,30.05,South,179,0.0,9.0,96,0.00,,,0.00,0.0,meteohub,2013-12-22 08:39:00,
2013-12-22 03:44:00,69.4,68.2,30.05,SSE,161,0.0,8.0,96,0.00,,,0.00,0.0,meteohub,2013-12-22 08:44:00,
2013-12-22 03:49:00,69.4,68.2,30.05,SE,134,0.0,7.0,96,0.00,,,0.00,0.0,meteohub,2013-12-22 08:49:00,
2013-12-22 03:54:00,69.3,68.0,30.05,SE,130,0.0,7.0,96,0.00,,,0.00,0.0,meteohub,2013-12-22 08:54:00,
2013-12-22 04:00:00,69.3,68.0,30.04,SE,134,0.0,7.0,96,0.00,,,0.00,0.0,meteohub,2013-12-22 09:00:00,
2013-12-22 04:05:00,69.1,67.8,30.04,SE,140,2.0,5.0,96,0.00,,,0.00,0.0,meteohub,2013-12-22 09:05:00,
2013-12-22 04:10:00,68.9,67.6,30.04,South,182,2.0,5.0,96,0.00,,,0.00,0.0,meteohub,2013-12-22 09:10:00,
2013-12-22 04:15:00,68.7,67.5,30.04,SSE,159,0.0,5.0,96,0.00,,,0.00,0.0,meteohub,2013-12-22 09:15:00,
2013-12-22 04:20:00,68.5,67.3,30.05,East,84,0.0,5.0,96,0.00,,,0.00,0.0,meteohub,2013-12-22 09:20:00,
2013-12-22 04:25:00,68.4,67.1,30.05,SE,139,3.0,5.0,96,0.00,,,0.00,0.0,meteohub,2013-12-22 09:25:00,
2013-12-22 04:30:00,68.4,67.1,30.04,SSE,163,2.0,4.0,96,0.00,,,0.00,0.0,meteohub,2013-12-22 09:30:00,
2013-12-22 04:35:00,68.4,67.1,30.05,South,182,0.0,5.0,96,0.00,,,0.00,0.0,meteohub,2013-12-22 09:35:00,
2013-12-22 04:40:00,68.4,67.1,30.05,ESE,111,1.0,5.0,96,0.00,,,0.00,0.0,meteohub,2013-12-22 09:40:00,
2013-12-22 04:45:00,68.5,67.3,30.05,SSW,199,1.0,5.0,96,0.00,,,0.00,0.0,meteohub,2013-12-22 09:45:00,
2013-12-22 04:50:00,68.5,67.3,30.05,SSE,164,1.0,4.0,96,0.00,,,0.00,0.0,meteohub,2013-12-22 09:50:00,
2013-12-22 04:55:00,68.5,67.3,30.05,SSE,156,0.0,5.0,96,0.00,,,0.00,0.0,meteohub,2013-12-22 09:55:00,
2013-12-22 05:00:00,68.5,67.3,30.06,SSE,156,0.0,5.0,96,0.00,,,0.00,0.0,meteohub,2013-12-22 10:00:00,
2013-12-22 05:05:00,68.5,67.6,30.05,SE,136,0.0,5.0,97,0.00,,,0.00,0.0,meteohub,2013-12-22 10:05:00,
2013-12-22 05:10:00,68.5,67.6,30.05,SE,146,2.0,4.0,97,0.00,,,0.00,0.0,meteohub,2013-12-22 10:10:00,
2013-12-22 05:15:00,68.5,67.6,30.05,SE,144,3.0,5.0,97,0.00,,,0.00,0.0,meteohub,2013-12-22 10:15:00,
2013-12-22 05:20:00,68.5,67.6,30.05,SSE,148,1.0,6.0,97,0.00,,,0.00,0.0,meteohub,2013-12-22 10:20:00,
2013-12-22 05:25:00,68.4,67.5,30.05,South,191,0.0,6.0,97,0.00,,,0.00,0.0,meteohub,2013-12-22 10:25:00,
2013-12-22 05:30:00,68.4,67.5,30.05,SE,142,0.0,6.0,97,0.00,,,0.00,0.0,meteohub,2013-12-22 10:30:00,
2013-12-22 05:35:00,68.4,67.5,30.05,SSE,153,2.0,5.0,97,0.00,,,0.00,0.0,meteohub,2013-12-22 10:35:00,
2013-12-22 05:40:00,68.4,67.1,30.05,SSE,148,0.0,4.0,96,0.00,,,0.00,0.0,meteohub,2013-12-22 10:40:00,
2013-12-22 05:45:00,68.2,66.9,30.05,South,175,3.0,4.0,96,0.00,,,0.00,0.0,meteohub,2013-12-22 10:45:00,
2013-12-22 05:50:00,68.2,66.9,30.05,ESE,123,0.0,4.0,96,0.00,,,0.00,0.0,meteohub,2013-12-22 10:50:00,
2013-12-22 05:55:00,67.8,66.9,30.05,SE,141,0.0,4.0,97,0.00,,,0.00,0.0,meteohub,2013-12-22 10:55:00,
2013-12-22 06:00:00,67.6,66.7,30.05,SE,130,2.0,5.0,97,0.00,,,0.00,0.0,meteohub,2013-12-22 11:00:00,
2013-12-22 06:05:00,67.5,66.2,30.05,SE,133,0.0,5.0,96,0.00,,,0.00,0.0,meteohub,2013-12-22 11:05:00,
2013-12-22 06:10:00,67.3,66.4,30.05,SE,142,0.0,5.0,97,0.00,,,0.00,0.0,meteohub,2013-12-22 11:10:00,
2013-12-22 06:15:00,67.3,66.4,30.05,South,180,0.0,5.0,97,0.00,,,0.00,0.0,meteohub,2013-12-22 11:15:00,
2013-12-22 06:20:00,67.3,66.4,30.05,ESE,111,0.0,5.0,97,0.00,,,0.00,0.0,meteohub,2013-12-22 11:20:00,
2013-12-22 06:25:00,67.5,66.6,30.05,SSE,164,2.0,6.0,97,0.00,,,0.00,0.0,meteohub,2013-12-22 11:25:00,
2013-12-22 06:30:00,67.5,66.6,30.04,East,96,3.0,6.0,97,0.00,,,0.00,0.0,meteohub,2013-12-22 11:30:00,
2013-12-22 06:35:00,67.6,66.7,30.04,SE,146,5.0,6.0,97,0.00,,,0.00,0.0,meteohub,2013-12-22 11:35:00,
2013-12-22 06:40:00,67.6,66.7,30.04,SSE,153,0.0,6.0,97,0.00,,,0.00,0.0,meteohub,2013-12-22 11:40:00,
2013-12-22 06:45:00,67.6,66.7,30.04,SE,140,2.0,10.0,97,0.00,,,0.00,0.0,meteohub,2013-12-22 11:45:00,
2013-12-22 06:50:00,67.6,66.7,30.04,SE,143,0.0,10.0,97,0.00,,,0.00,0.0,meteohub,2013-12-22 11:50:00,
2013-12-22 06:55:00,67.8,66.9,30.04,ESE,116,0.0,10.0,97,0.00,,,0.00,0.0,meteohub,2013-12-22 11:55:00,
2013-12-22 07:00:00,67.8,66.9,30.04,SE,141,1.0,7.0,97,0.00,,,0.00,0.0,meteohub,2013-12-22 12:00:00,
2013-12-22 07:05:00,67.8,66.9,30.05,SSW,210,4.0,7.0,97,0.00,,,0.00,0.0,meteohub,2013-12-22 12:05:00,
2013-12-22 07:10:00,68.0,67.1,30.06,SSE,150,2.0,5.0,97,0.00,,,0.00,0.0,meteohub,2013-12-22 12:10:00,
2013-12-22 07:15:00,68.2,67.3,30.06,SSW,209,0.0,5.0,97,0.00,,,0.00,0.0,meteohub,2013-12-22 12:15:00,
2013-12-22 07:20:00,68.2,67.3,30.06,SSE,151,0.0,5.0,97,0.00,,,0.00,0.0,meteohub,2013-12-22 12:20:00,
2013-12-22 07:25:00,68.4,67.5,30.06,SE,132,0.0,5.0,97,0.00,,,0.00,9.0,meteohub,2013-12-22 12:25:00,
2013-12-22 07:30:00,68.5,67.6,30.06,South,175,1.0,6.0,97,0.00,,,0.00,11.0,meteohub,2013-12-22 12:30:00,
2013-12-22 07:35:00,68.5,67.6,30.06,SE,138,0.0,6.0,97,0.00,,,0.00,9.0,meteohub,2013-12-22 12:35:00,
2013-12-22 07:40:00,68.7,67.8,30.07,South,169,2.0,6.0,97,0.00,,,0.00,9.0,meteohub,2013-12-22 12:40:00,
2013-12-22 07:45:00,68.7,67.8,30.07,South,171,0.0,6.0,97,0.00,,,0.00,14.0,meteohub,2013-12-22 12:45:00,
2013-12-22 07:50:00,68.7,67.8,30.07,South,170,0.0,6.0,97,0.00,,,0.00,25.0,meteohub,2013-12-22 12:50:00,
2013-12-22 07:55:00,68.7,67.8,30.07,South,182,1.0,5.0,97,0.00,,,0.00,16.0,meteohub,2013-12-22 12:55:00,
2013-12-22 08:00:00,68.7,67.8,30.07,South,182,0.0,5.0,97,0.00,,,0.00,35.0,meteohub,2013-12-22 13:00:00,
2013-12-22 08:05:00,68.7,67.8,30.07,South,174,0.0,5.0,97,0.00,,,0.00,47.0,meteohub,2013-12-22 13:05:00,
2013-12-22 08:10:00,68.7,67.8,30.07,South,187,0.0,5.0,97,0.00,,,0.00,90.0,meteohub,2013-12-22 13:10:00,
2013-12-22 08:15:00,69.1,68.2,30.07,SSE,164,0.0,5.0,97,0.00,,,0.00,90.0,meteohub,2013-12-22 13:15:00,
2013-12-22 08:20:00,69.3,68.4,30.07,South,175,0.0,5.0,97,0.00,,,0.00,118.0,meteohub,2013-12-22 13:20:00,
2013-12-22 08:25:00,69.4,68.5,30.08,SSE,153,0.0,3.0,97,0.00,,,0.00,26.0,meteohub,2013-12-22 13:25:00,
2013-12-22 08:30:00,69.4,68.5,30.07,SSE,159,1.0,3.0,97,0.00,,,0.00,26.0,meteohub,2013-12-22 13:30:00,
2013-12-22 08:35:00,69.4,68.2,30.08,SSE,159,0.0,5.0,96,0.00,,,0.00,42.0,meteohub,2013-12-22 13:35:00,
2013-12-22 08:40:00,69.6,68.4,30.08,SSW,203,1.0,7.0,96,0.00,,,0.00,97.0,meteohub,2013-12-22 13:40:00,
2013-12-22 08:45:00,69.8,68.9,30.08,SE,144,2.0,7.0,97,0.00,,,0.00,178.0,meteohub,2013-12-22 13:45:00,
2013-12-22 08:50:00,70.2,68.9,30.08,SSE,163,1.0,7.0,96,0.00,,,0.00,236.0,meteohub,2013-12-22 13:50:00,
2013-12-22 08:55:00,70.5,69.3,30.08,ESE,121,2.0,7.0,96,0.00,,,0.00,221.0,meteohub,2013-12-22 13:55:00,
2013-12-22 09:00:00,70.9,69.6,30.09,South,178,1.0,7.0,96,0.00,,,0.00,274.0,meteohub,2013-12-22 14:00:00,
2013-12-22 09:05:00,71.4,70.0,30.09,SSE,153,1.0,7.0,95,0.00,,,0.00,267.0,meteohub,2013-12-22 14:05:00,
2013-12-22 09:10:00,71.8,70.3,30.09,SW,217,5.0,5.0,95,0.00,,,0.00,311.0,meteohub,2013-12-22 14:10:00,
2013-12-22 09:15:00,72.1,70.3,30.09,SSE,152,4.0,8.0,94,0.00,,,0.00,364.0,meteohub,2013-12-22 14:15:00,
2013-12-22 09:20:00,72.5,70.3,30.09,SSE,153,2.0,9.0,93,0.00,,,0.00,334.0,meteohub,2013-12-22 14:20:00,
2013-12-22 09:25:00,72.9,70.3,30.09,South,180,3.0,9.0,92,0.00,,,0.00,397.0,meteohub,2013-12-22 14:25:00,
2013-12-22 09:30:00,73.0,70.3,30.09,South,177,0.0,9.0,91,0.00,,,0.00,369.0,meteohub,2013-12-22 14:30:00,
2013-12-22 09:35:00,73.4,70.5,30.09,SSW,203,1.0,10.0,91,0.00,,,0.00,366.0,meteohub,2013-12-22 14:35:00,
2013-12-22 09:40:00,73.8,70.7,30.10,South,172,0.0,10.0,90,0.00,,,0.00,369.0,meteohub,2013-12-22 14:40:00,
2013-12-22 09:45:00,74.1,71.1,30.09,SSE,163,11.0,11.0,90,0.00,,,0.00,392.0,meteohub,2013-12-22 14:45:00,
2013-12-22 09:50:00,74.1,70.7,30.09,SE,141,1.0,11.0,89,0.00,,,0.00,394.0,meteohub,2013-12-22 14:50:00,
2013-12-22 09:55:00,74.5,70.7,30.09,SSE,156,6.0,11.0,88,0.00,,,0.00,406.0,meteohub,2013-12-22 14:55:00,
2013-12-22 10:00:00,74.7,70.5,30.09,SE,144,1.0,11.0,87,0.00,,,0.00,415.0,meteohub,2013-12-22 15:00:00,
2013-12-22 10:05:00,75.0,70.9,30.09,SSE,157,8.0,11.0,87,0.00,,,0.00,425.0,meteohub,2013-12-22 15:05:00,
2013-12-22 10:10:00,75.4,71.2,30.09,SSE,162,3.0,11.0,87,0.00,,,0.00,438.0,meteohub,2013-12-22 15:10:00,
2013-12-22 10:15:00,75.6,71.1,30.09,SSE,157,10.0,11.0,86,0.00,,,0.00,450.0,meteohub,2013-12-22 15:15:00,
2013-12-22 10:20:00,75.7,70.9,30.09,SE,134,3.0,11.0,85,0.00,,,0.00,469.0,meteohub,2013-12-22 15:20:00,
2013-12-22 10:25:00,75.9,70.7,30.09,SSW,194,4.0,17.0,84,0.00,,,0.00,469.0,meteohub,2013-12-22 15:25:00,
2013-12-22 10:30:00,76.3,71.1,30.09,SE,128,0.0,17.0,84,0.00,,,0.00,482.0,meteohub,2013-12-22 15:30:00,
2013-12-22 10:35:00,76.8,71.2,30.09,SSW,213,5.0,17.0,83,0.00,,,0.00,559.0,meteohub,2013-12-22 15:35:00,
2013-12-22 10:40:00,77.2,71.2,30.09,South,190,3.0,13.0,82,0.00,,,0.00,281.0,meteohub,2013-12-22 15:40:00,
2013-12-22 10:45:00,77.2,71.2,30.09,SSW,207,4.0,16.0,82,0.00,,,0.00,364.0,meteohub,2013-12-22 15:45:00,
2013-12-22 10:50:00,77.4,71.4,30.10,SSW,210,3.0,16.0,82,0.00,,,0.00,269.0,meteohub,2013-12-22 15:50:00,
2013-12-22 10:55:00,77.2,71.2,30.09,WSW,241,5.0,18.0,82,0.00,,,0.00,181.0,meteohub,2013-12-22 15:55:00,
2013-12-22 11:00:00,77.2,71.2,30.09,SW,221,0.0,18.0,82,0.00,,,0.00,229.0,meteohub,2013-12-22 16:00:00,
2013-12-22 11:05:00,77.5,71.2,30.09,South,182,7.0,18.0,81,0.00,,,0.00,680.0,meteohub,2013-12-22 16:05:00,
2013-12-22 11:10:00,77.4,71.1,30.09,SSE,167,4.0,13.0,81,0.00,,,0.00,137.0,meteohub,2013-12-22 16:10:00,
2013-12-22 11:15:00,77.4,71.1,30.09,SSW,195,0.0,11.0,81,0.00,,,0.00,237.0,meteohub,2013-12-22 16:15:00,
2013-12-22 11:20:00,77.4,70.7,30.09,SE,137,0.0,12.0,80,0.00,,,0.00,563.0,meteohub,2013-12-22 16:20:00,
2013-12-22 11:25:00,77.4,70.7,30.09,SSE,161,0.0,13.0,80,0.00,,,0.00,174.0,meteohub,2013-12-22 16:25:00,
2013-12-22 11:30:00,77.7,71.4,30.09,SE,144,1.0,13.0,81,0.00,,,0.00,638.0,meteohub,2013-12-22 16:30:00,
2013-12-22 11:35:00,78.1,71.1,30.09,South,176,2.0,10.0,79,0.00,,,0.00,587.0,meteohub,2013-12-22 16:35:00,
2013-12-22 11:40:00,78.4,71.4,30.09,SW,231,2.0,13.0,79,0.00,,,0.00,661.0,meteohub,2013-12-22 16:40:00,
2013-12-22 11:45:00,78.6,70.9,30.08,SSE,166,2.0,13.0,77,0.00,,,0.00,167.0,meteohub,2013-12-22 16:45:00,
2013-12-22 11:50:00,78.3,70.9,30.09,SSW,203,2.0,14.0,78,0.00,,,0.00,139.0,meteohub,2013-12-22 16:50:00,
2013-12-22 11:55:00,77.5,70.5,30.08,South,175,1.0,14.0,79,0.00,,,0.00,148.0,meteohub,2013-12-22 16:55:00,
2013-12-22 12:00:00,77.4,70.3,30.08,SE,127,1.0,14.0,79,0.00,,,0.00,225.0,meteohub,2013-12-22 17:00:00,
2013-12-22 12:05:00,77.7,70.7,30.08,SW,232,0.0,7.0,79,0.00,,,0.00,504.0,meteohub,2013-12-22 17:05:00,
2013-12-22 12:10:00,78.6,70.9,30.08,South,190,4.0,10.0,77,0.00,,,0.00,504.0,meteohub,2013-12-22 17:10:00,
2013-12-22 12:15:00,78.6,70.3,30.07,SW,217,7.0,10.0,76,0.00,,,0.00,360.0,meteohub,2013-12-22 17:15:00,
2013-12-22 12:20:00,78.6,70.9,30.08,WSW,244,5.0,12.0,77,0.00,,,0.00,436.0,meteohub,2013-12-22 17:20:00,
2013-12-22 12:25:00,78.6,70.9,30.07,SW,219,10.0,12.0,77,0.00,,,0.00,269.0,meteohub,2013-12-22 17:25:00,
2013-12-22 12:30:00,78.4,70.7,30.08,SW,226,3.0,10.0,77,0.00,,,0.00,288.0,meteohub,2013-12-22 17:30:00,
2013-12-22 12:35:00,78.3,70.5,30.07,South,175,2.0,10.0,77,0.00,,,0.00,239.0,meteohub,2013-12-22 17:35:00,
2013-12-22 12:40:00,78.1,70.3,30.07,SSW,195,4.0,10.0,77,0.00,,,0.00,195.0,meteohub,2013-12-22 17:40:00,
2013-12-22 12:45:00,78.1,70.3,30.06,SE,145,2.0,8.0,77,0.00,,,0.00,236.0,meteohub,2013-12-22 17:45:00,
2013-12-22 12:50:00,78.1,70.7,30.06,SSW,195,6.0,7.0,78,0.00,,,0.00,265.0,meteohub,2013-12-22 17:50:00,
2013-12-22 12:55:00,78.3,70.9,30.06,SSE,164,2.0,12.0,78,0.00,,,0.00,334.0,meteohub,2013-12-22 17:55:00,
2013-12-22 13:00:00,78.6,70.9,30.06,South,180,3.0,12.0,77,0.00,,,0.00,640.0,meteohub,2013-12-22 18:00:00,
2013-12-22 13:05:00,79.0,71.1,30.06,SSE,167,1.0,8.0,77,0.00,,,0.00,640.0,meteohub,2013-12-22 18:05:00,
2013-12-22 13:10:00,79.2,70.9,30.06,North,350,0.0,8.0,76,0.00,,,0.00,239.0,meteohub,2013-12-22 18:10:00,
2013-12-22 13:15:00,79.3,71.1,30.06,SSW,202,2.0,8.0,76,0.00,,,0.00,153.0,meteohub,2013-12-22 18:15:00,
2013-12-22 13:20:00,78.6,70.9,30.06,West,265,1.0,7.0,77,0.00,,,0.00,146.0,meteohub,2013-12-22 18:20:00,
2013-12-22 13:25:00,78.4,70.7,30.06,WSW,250,0.0,7.0,77,0.00,,,0.00,151.0,meteohub,2013-12-22 18:25:00,
2013-12-22 13:30:00,78.3,70.9,30.06,SE,139,4.0,7.0,78,0.00,,,0.00,229.0,meteohub,2013-12-22 18:30:00,
2013-12-22 13:35:00,78.4,71.4,30.06,SSE,155,0.0,5.0,79,0.00,,,0.00,229.0,meteohub,2013-12-22 18:35:00,
2013-12-22 13:40:00,78.6,71.2,30.06,SSE,165,1.0,5.0,78,0.00,,,0.00,346.0,meteohub,2013-12-22 18:40:00,
2013-12-22 13:45:00,78.8,71.1,30.05,WSW,251,1.0,5.0,77,0.00,,,0.00,197.0,meteohub,2013-12-22 18:45:00,
2013-12-22 13:50:00,79.2,71.2,30.05,WSW,245,7.0,7.0,77,0.00,,,0.00,381.0,meteohub,2013-12-22 18:50:00,
2013-12-22 13:55:00,79.5,71.2,30.05,SW,217,0.0,8.0,76,0.00,,,0.00,341.0,meteohub,2013-12-22 18:55:00,
2013-12-22 14:00:00,80.1,71.8,30.04,SSW,209,0.0,8.0,76,0.00,,,0.00,506.0,meteohub,2013-12-22 19:00:00,
2013-12-22 14:05:00,80.4,71.8,30.04,SW,215,1.0,8.0,75,0.00,,,0.00,462.0,meteohub,2013-12-22 19:05:00,
2013-12-22 14:10:00,80.4,71.4,30.04,SSW,210,1.0,4.0,74,0.00,,,0.00,406.0,meteohub,2013-12-22 19:10:00,
2013-12-22 14:15:00,80.4,71.4,30.04,SE,146,5.0,8.0,74,0.00,,,0.00,457.0,meteohub,2013-12-22 19:15:00,
2013-12-22 14:20:00,80.4,70.9,30.04,SW,233,1.0,8.0,73,0.00,,,0.00,483.0,meteohub,2013-12-22 19:20:00,
2013-12-22 14:25:00,80.8,71.2,30.04,SSW,202,4.0,13.0,73,0.00,,,0.00,353.0,meteohub,2013-12-22 19:25:00,
2013-12-22 14:30:00,81.0,71.4,30.04,SSE,161,0.0,13.0,73,0.00,,,0.00,420.0,meteohub,2013-12-22 19:30:00,
2013-12-22 14:35:00,81.1,71.2,30.04,West,259,2.0,13.0,72,0.00,,,0.00,315.0,meteohub,2013-12-22 19:35:00,
2013-12-22 14:40:00,81.1,70.9,30.04,NW,315,0.0,5.0,71,0.00,,,0.00,397.0,meteohub,2013-12-22 19:40:00,
2013-12-22 14:45:00,81.0,70.7,30.04,SSW,196,2.0,6.0,71,0.00,,,0.00,371.0,meteohub,2013-12-22 19:45:00,
2013-12-22 14:50:00,81.1,70.9,30.04,WSW,248,1.0,6.0,71,0.00,,,0.00,323.0,meteohub,2013-12-22 19:50:00,
2013-12-22 14:55:00,81.1,70.9,30.04,SSE,150,6.0,6.0,71,0.00,,,0.00,338.0,meteohub,2013-12-22 19:55:00,
2013-12-22 15:00:00,81.3,71.1,30.04,SSE,157,4.0,7.0,71,0.00,,,0.00,262.0,meteohub,2013-12-22 20:00:00,
2013-12-22 15:05:00,81.3,71.1,30.04,SSE,157,0.0,7.0,71,0.00,,,0.00,264.0,meteohub,2013-12-22 20:05:00,
2013-12-22 15:10:00,81.3,70.5,30.04,SSE,155,1.0,8.0,70,0.00,,,0.00,229.0,meteohub,2013-12-22 20:10:00,
2013-12-22 15:15:00,81.0,70.2,30.03,ESE,107,0.0,8.0,70,0.00,,,0.00,197.0,meteohub,2013-12-22 20:15:00,
2013-12-22 15:20:00,81.0,70.7,30.03,East,79,0.0,9.0,71,0.00,,,0.00,165.0,meteohub,2013-12-22 20:20:00,
2013-12-22 15:25:00,80.4,70.9,30.03,SE,142,1.0,9.0,73,0.00,,,0.00,125.0,meteohub,2013-12-22 20:25:00,
2013-12-22 15:30:00,79.9,70.9,30.03,ESE,114,7.0,8.0,74,0.00,,,0.00,155.0,meteohub,2013-12-22 20:30:00,
2013-12-22 15:35:00,79.2,70.5,30.03,SSW,198,7.0,7.0,75,0.00,,,0.00,151.0,meteohub,2013-12-22 20:35:00,
2013-12-22 15:40:00,78.8,70.5,30.03,SSE,155,0.0,9.0,76,0.00,,,0.00,171.0,meteohub,2013-12-22 20:40:00,
2013-12-22 15:45:00,78.6,70.3,30.04,South,171,0.0,9.0,76,0.00,,,0.00,127.0,meteohub,2013-12-22 20:45:00,
2013-12-22 15:50:00,78.3,70.0,30.03,SE,146,2.0,9.0,76,0.00,,,0.00,127.0,meteohub,2013-12-22 20:50:00,
2013-12-22 15:55:00,78.1,70.3,30.04,SSE,161,0.0,8.0,77,0.00,,,0.00,149.0,meteohub,2013-12-22 20:55:00,
2013-12-22 16:00:00,77.7,70.0,30.03,SE,128,1.0,8.0,77,0.00,,,0.00,86.0,meteohub,2013-12-22 21:00:00,
2013-12-22 16:05:00,77.4,70.0,30.04,South,176,1.0,7.0,78,0.00,,,0.00,76.0,meteohub,2013-12-22 21:05:00,
2013-12-22 16:10:00,76.8,69.4,30.04,ESE,123,0.0,6.0,78,0.00,,,0.00,58.0,meteohub,2013-12-22 21:10:00,
2013-12-22 16:15:00,76.1,69.4,30.04,ESE,114,0.0,8.0,80,0.00,,,0.00,60.0,meteohub,2013-12-22 21:15:00,
2013-12-22 16:20:00,75.6,69.3,30.04,SSE,150,2.0,8.0,81,0.00,,,0.00,67.0,meteohub,2013-12-22 21:20:00,
2013-12-22 16:25:00,74.8,68.9,30.04,SE,145,0.0,7.0,82,0.00,,,0.00,60.0,meteohub,2013-12-22 21:25:00,
2013-12-22 16:28:00,74.7,68.7,30.04,ESE,121,2.0,7.0,82,0.00,,,0.00,53.0,meteohub,2013-12-22 21:28:00,
2013-12-22 16:33:00,74.1,68.5,30.04,South,184,0.0,7.0,83,0.00,,,0.00,44.0,meteohub,2013-12-22 21:33:00,
2013-12-22 16:38:00,73.8,68.5,30.04,SE,142,0.0,7.0,84,0.00,,,0.00,39.0,meteohub,2013-12-22 21:38:00,
2013-12-22 16:43:00,73.4,68.2,30.05,East,100,2.0,6.0,84,0.00,,,0.00,39.0,meteohub,2013-12-22 21:43:00,
2013-12-22 16:48:00,72.7,67.6,30.05,SE,144,1.0,8.0,84,0.00,,,0.00,49.0,meteohub,2013-12-22 21:48:00,
2013-12-22 16:53:00,72.1,67.5,30.05,SE,133,2.0,9.0,85,0.00,,,0.00,33.0,meteohub,2013-12-22 21:53:00,
2013-12-22 16:58:00,71.4,67.1,30.05,SE,133,0.0,9.0,86,0.00,,,0.00,28.0,meteohub,2013-12-22 21:58:00,
2013-12-22 17:03:00,71.1,66.9,30.05,SSE,160,2.0,9.0,87,0.00,,,0.00,25.0,meteohub,2013-12-22 22:03:00,
2013-12-22 17:08:00,70.9,67.1,30.05,SSE,153,1.0,7.0,88,0.00,,,0.00,19.0,meteohub,2013-12-22 22:08:00,
2013-12-22 17:13:00,70.5,66.7,30.05,SE,143,0.0,6.0,88,0.00,,,0.00,16.0,meteohub,2013-12-22 22:13:00,
2013-12-22 17:18:00,70.3,66.9,30.05,SE,142,1.0,6.0,89,0.00,,,0.00,12.0,meteohub,2013-12-22 22:18:00,
2013-12-22 17:23:00,70.2,66.7,30.05,SE,131,0.0,3.0,89,0.00,,,0.00,7.0,meteohub,2013-12-22 22:23:00,
2013-12-22 17:28:00,70.0,66.6,30.05,ESE,109,0.0,5.0,89,0.00,,,0.00,0.0,meteohub,2013-12-22 22:28:00,
2013-12-22 17:33:00,69.6,66.6,30.05,ESE,110,1.0,5.0,90,0.00,,,0.00,5.0,meteohub,2013-12-22 22:33:00,
2013-12-22 17:38:00,69.6,66.6,30.05,SE,139,0.0,5.0,90,0.00,,,0.00,0.0,meteohub,2013-12-22 22:38:00,
2013-12-22 17:43:00,69.4,66.4,30.05,ESE,113,0.0,3.0,90,0.00,,,0.00,0.0,meteohub,2013-12-22 22:43:00,
2013-12-22 17:48:00,69.3,66.6,30.05,ESE,113,0.0,2.0,91,0.00,,,0.00,0.0,meteohub,2013-12-22 22:48:00,
2013-12-22 17:53:00,69.3,66.6,30.05,ESE,113,0.0,2.0,91,0.00,,,0.00,0.0,meteohub,2013-12-22 22:53:00,
2013-12-22 17:58:00,69.1,66.4,30.05,ESE,113,0.0,2.0,91,0.00,,,0.00,0.0,meteohub,2013-12-22 22:58:00,
2013-12-22 18:03:00,68.9,66.2,30.05,ESE,113,0.0,2.0,91,0.00,,,0.00,0.0,meteohub,2013-12-22 23:03:00,
2013-12-22 18:08:00,68.7,66.4,30.05,ESE,103,1.0,3.0,92,0.00,,,0.00,0.0,meteohub,2013-12-22 23:08:00,
2013-12-22 18:13:00,68.7,66.4,30.05,ESE,103,0.0,3.0,92,0.00,,,0.00,0.0,meteohub,2013-12-22 23:13:00,
2013-12-22 18:18:00,68.5,66.2,30.05,ESE,107,0.0,3.0,92,0.00,,,0.00,0.0,meteohub,2013-12-22 23:18:00,
2013-12-22 18:23:00,68.5,66.2,30.05,ESE,109,0.0,4.0,92,0.00,,,0.00,0.0,meteohub,2013-12-22 23:23:00,
2013-12-22 18:28:00,68.5,66.4,30.06,ENE,75,0.0,4.0,93,0.00,,,0.00,0.0,meteohub,2013-12-22 23:28:00,
2013-12-22 18:33:00,68.7,66.6,30.06,ESE,111,0.0,4.0,93,0.00,,,0.00,0.0,meteohub,2013-12-22 23:33:00,
2013-12-22 18:38:00,68.7,66.6,30.06,SE,125,0.0,4.0,93,0.00,,,0.00,0.0,meteohub,2013-12-22 23:38:00,
2013-12-22 18:43:00,69.1,66.9,30.06,ESE,123,0.0,5.0,93,0.00,,,0.00,0.0,meteohub,2013-12-22 23:43:00,
2013-12-22 18:48:00,69.3,67.1,30.06,SSE,155,0.0,5.0,93,0.00,,,0.00,0.0,meteohub,2013-12-22 23:48:00,
2013-12-22 18:53:00,69.3,67.1,30.06,ESE,122,1.0,5.0,93,0.00,,,0.00,0.0,meteohub,2013-12-22 23:53:00,
2013-12-22 18:58:00,69.4,67.3,30.06,South,176,2.0,5.0,93,0.00,,,0.00,0.0,meteohub,2013-12-22 23:58:00,
2013-12-22 19:03:00,69.4,67.3,30.06,ESE,121,0.0,5.0,93,0.00,,,0.00,0.0,meteohub,2013-12-23 00:03:00,
2013-12-22 19:08:00,69.6,67.3,30.06,SSE,168,0.0,7.0,92,0.00,,,0.00,0.0,meteohub,2013-12-23 00:08:00,
2013-12-22 19:13:00,69.6,67.3,30.06,SSE,167,0.0,7.0,92,0.00,,,0.00,0.0,meteohub,2013-12-23 00:13:00,
2013-12-22 19:18:00,69.6,67.3,30.06,SE,126,0.0,7.0,92,0.00,,,0.00,0.0,meteohub,2013-12-23 00:18:00,
2013-12-22 19:23:00,69.6,67.3,30.06,South,187,1.0,6.0,92,0.00,,,0.00,0.0,meteohub,2013-12-23 00:23:00,
2013-12-22 19:28:00,69.6,67.3,30.06,SSE,157,0.0,4.0,92,0.00,,,0.00,0.0,meteohub,2013-12-23 00:28:00,
2013-12-22 19:33:00,69.6,67.3,30.06,East,86,1.0,5.0,92,0.00,,,0.00,0.0,meteohub,2013-12-23 00:33:00,
2013-12-22 19:38:00,69.6,67.3,30.07,East,98,3.0,5.0,92,0.00,,,0.00,0.0,meteohub,2013-12-23 00:38:00,
2013-12-22 19:43:00,69.8,67.3,30.07,South,190,0.0,6.0,92,0.00,,,0.00,0.0,meteohub,2013-12-23 00:43:00,
2013-12-22 19:48:00,69.8,67.1,30.07,SSE,150,0.0,6.0,91,0.00,,,0.00,0.0,meteohub,2013-12-23 00:48:00,
2013-12-22 19:53:00,69.8,67.1,30.07,SSE,167,5.0,6.0,91,0.00,,,0.00,0.0,meteohub,2013-12-23 00:53:00,
2013-12-22 19:58:00,70.0,67.5,30.07,ESE,103,0.0,7.0,92,0.00,,,0.00,0.0,meteohub,2013-12-23 00:58:00,
2013-12-22 20:03:00,70.0,67.5,30.07,SSE,157,2.0,7.0,92,0.00,,,0.00,0.0,meteohub,2013-12-23 01:03:00,
2013-12-22 20:08:00,70.3,67.8,30.07,SE,144,4.0,6.0,92,0.00,,,0.00,0.0,meteohub,2013-12-23 01:08:00,
2013-12-22 20:13:00,70.5,67.8,30.07,SE,141,0.0,7.0,91,0.00,,,0.00,0.0,meteohub,2013-12-23 01:13:00,
2013-12-22 20:18:00,70.5,67.8,30.07,East,94,0.0,7.0,91,0.00,,,0.00,0.0,meteohub,2013-12-23 01:18:00,
2013-12-22 20:23:00,70.5,67.8,30.07,SE,135,3.0,7.0,91,0.00,,,0.00,0.0,meteohub,2013-12-23 01:23:00,
2013-12-22 20:28:00,70.7,68.0,30.07,SSW,207,5.0,6.0,91,0.00,,,0.00,0.0,meteohub,2013-12-23 01:28:00,
2013-12-22 20:33:00,70.7,68.0,30.07,SSW,201,1.0,7.0,91,0.00,,,0.00,0.0,meteohub,2013-12-23 01:33:00,
2013-12-22 20:38:00,70.5,67.8,30.07,SE,130,4.0,7.0,91,0.00,,,0.00,0.0,meteohub,2013-12-23 01:38:00,
2013-12-22 20:43:00,70.5,67.8,30.07,ESE,111,4.0,7.0,91,0.00,,,0.00,0.0,meteohub,2013-12-23 01:43:00,
2013-12-22 20:48:00,70.5,67.8,30.07,SSE,160,1.0,8.0,91,0.00,,,0.00,0.0,meteohub,2013-12-23 01:48:00,
2013-12-22 20:53:00,70.5,67.8,30.07,SE,125,0.0,8.0,91,0.00,,,0.00,0.0,meteohub,2013-12-23 01:53:00,
2013-12-22 20:58:00,70.5,67.8,30.07,SSE,163,3.0,8.0,91,0.00,,,0.00,0.0,meteohub,2013-12-23 01:58:00,
2013-12-22 21:03:00,70.7,68.0,30.07,SE,132,0.0,6.0,91,0.00,,,0.00,0.0,meteohub,2013-12-23 02:03:00,
2013-12-22 21:08:00,70.9,67.8,30.08,SSE,159,1.0,5.0,90,0.00,,,0.00,0.0,meteohub,2013-12-23 02:08:00,
2013-12-22 21:13:00,71.1,68.0,30.09,South,185,0.0,6.0,90,0.00,,,0.00,0.0,meteohub,2013-12-23 02:13:00,
2013-12-22 21:18:00,71.2,68.2,30.09,South,171,2.0,6.0,90,0.00,,,0.00,0.0,meteohub,2013-12-23 02:18:00,
2013-12-22 21:23:00,71.2,68.2,30.08,WSW,238,0.0,8.0,90,0.00,,,0.00,0.0,meteohub,2013-12-23 02:23:00,
2013-12-22 21:28:00,71.2,68.2,30.08,South,174,0.0,8.0,90,0.00,,,0.00,0.0,meteohub,2013-12-23 02:28:00,
2013-12-22 21:33:00,71.2,68.2,30.08,SE,146,0.0,8.0,90,0.00,,,0.00,0.0,meteohub,2013-12-23 02:33:00,
2013-12-22 21:38:00,71.1,68.0,30.08,SE,146,0.0,6.0,90,0.00,,,0.00,0.0,meteohub,2013-12-23 02:38:00,
2013-12-22 21:43:00,71.1,68.0,30.08,SE,128,1.0,3.0,90,0.00,,,0.00,0.0,meteohub,2013-12-23 02:43:00,
2013-12-22 21:48:00,70.9,67.8,30.08,SSE,155,1.0,3.0,90,0.00,,,0.00,0.0,meteohub,2013-12-23 02:48:00,
2013-12-22 21:53:00,71.1,68.4,30.08,SSE,156,0.0,3.0,91,0.00,,,0.00,0.0,meteohub,2013-12-23 02:53:00,
2013-12-22 21:58:00,71.1,68.4,30.08,SSE,156,0.0,6.0,91,0.00,,,0.00,0.0,meteohub,2013-12-23 02:58:00,
2013-12-22 22:03:00,71.1,68.4,30.08,SSE,168,0.0,6.0,91,0.00,,,0.00,0.0,meteohub,2013-12-23 03:03:00,
2013-12-22 22:08:00,71.1,68.4,30.09,SSE,155,0.0,6.0,91,0.00,,,0.00,0.0,meteohub,2013-12-23 03:08:00,
2013-12-22 22:13:00,71.1,68.0,30.09,SSE,153,0.0,5.0,90,0.00,,,0.00,0.0,meteohub,2013-12-23 03:13:00,
2013-12-22 22:18:00,71.2,68.5,30.09,SSE,150,0.0,5.0,91,0.00,,,0.00,0.0,meteohub,2013-12-23 03:18:00,
2013-12-22 22:23:00,71.2,68.5,30.09,SSE,149,0.0,5.0,91,0.00,,,0.00,0.0,meteohub,2013-12-23 03:23:00,
2013-12-22 22:28:00,71.1,68.0,30.09,SSE,150,0.0,4.0,90,0.00,,,0.00,0.0,meteohub,2013-12-23 03:28:00,
2013-12-22 22:33:00,71.1,68.0,30.09,SSE,149,0.0,4.0,90,0.00,,,0.00,0.0,meteohub,2013-12-23 03:33:00,
2013-12-22 22:38:00,70.9,68.2,30.09,SSE,149,0.0,1.0,91,0.00,,,0.00,0.0,meteohub,2013-12-23 03:38:00,
2013-12-22 22:43:00,70.7,68.0,30.09,SSE,150,0.0,1.0,91,0.00,,,0.00,0.0,meteohub,2013-12-23 03:43:00,
2013-12-22 22:48:00,70.5,67.8,30.09,SSE,150,0.0,1.0,91,0.00,,,0.00,0.0,meteohub,2013-12-23 03:48:00,
2013-12-22 22:53:00,70.5,67.8,30.09,SSE,149,0.0,1.0,91,0.00,,,0.00,0.0,meteohub,2013-12-23 03:53:00,
2013-12-22 22:58:00,70.5,68.0,30.09,SSE,149,0.0,1.0,92,0.00,,,0.00,0.0,meteohub,2013-12-23 03:58:00,
2013-12-22 23:03:00,70.5,67.8,30.09,SSE,149,0.0,2.0,91,0.00,,,0.00,0.0,meteohub,2013-12-23 04:03:00,
2013-12-22 23:08:00,70.5,67.8,30.09,SSE,150,0.0,2.0,91,0.00,,,0.00,0.0,meteohub,2013-12-23 04:08:00,
2013-12-22 23:13:00,70.5,67.8,30.09,SSE,150,0.0,2.0,91,0.00,,,0.00,0.0,meteohub,2013-12-23 04:13:00,
2013-12-22 23:18:00,70.2,67.5,30.09,SSE,150,0.0,1.0,91,0.00,,,0.00,0.0,meteohub,2013-12-23 04:18:00,
2013-12-22 23:23:00,70.0,67.5,30.09,SSE,149,0.0,1.0,92,0.00,,,0.00,0.0,meteohub,2013-12-23 04:23:00,
2013-12-22 23:28:00,69.6,67.3,30.09,SSE,149,0.0,2.0,92,0.00,,,0.00,0.0,meteohub,2013-12-23 04:28:00,
2013-12-22 23:33:00,69.4,67.1,30.09,SSE,149,0.0,2.0,92,0.00,,,0.00,0.0,meteohub,2013-12-23 04:33:00,
2013-12-22 23:38:00,69.4,67.3,30.09,SSE,149,0.0,1.0,93,0.00,,,0.00,0.0,meteohub,2013-12-23 04:38:00,
2013-12-22 23:43:00,69.3,67.1,30.09,SSE,149,0.0,3.0,93,0.00,,,0.00,0.0,meteohub,2013-12-23 04:43:00,
2013-12-22 23:48:00,69.3,67.1,30.09,SSE,150,0.0,3.0,93,0.00,,,0.00,0.0,meteohub,2013-12-23 04:48:00,
2013-12-22 23:53:00,69.3,67.1,30.09,SSE,150,1.0,3.0,93,0.00,,,0.00,0.0,meteohub,2013-12-23 04:53:00,
2013-12-22 23:58:00,69.3,67.1,30.09,SSE,150,0.0,2.0,93,0.00,,,0.00,0.0,meteohub,2013-12-23 04:58:00,